createdAt,value
2015-10-31T11:59:09.476Z,99462
2015-10-31T11:59:50.574Z,99465
2015-10-31T12:00:03.277Z,99459
2015-10-31T12:00:16.137Z,99459
2015-10-31T12:00:31.637Z,99459
2015-10-31T12:00:43.621Z,99469
2015-10-31T12:00:56.155Z,99459
2015-10-31T12:01:08.577Z,99462
2015-10-31T12:01:20.968Z,99456
2015-10-31T12:01:33.577Z,99453
2015-10-31T12:01:46.142Z,99453
2015-10-31T12:01:59.282Z,99453
2015-10-31T12:02:11.392Z,99462
2015-10-31T12:02:23.845Z,99462
2015-10-31T12:02:35.814Z,99462
2015-10-31T12:02:47.785Z,99456
2015-10-31T12:03:00.176Z,99459
2015-10-31T12:03:12.629Z,99456
2015-10-31T12:03:25.801Z,99462
2015-10-31T12:03:41.348Z,99456
2015-10-31T12:03:53.709Z,99462
2015-10-31T12:04:06.084Z,99462
2015-10-31T12:04:19.006Z,99459
2015-10-31T12:04:31.506Z,99453
2015-10-31T12:04:43.444Z,99456
2015-10-31T12:04:55.650Z,99456
2015-10-31T12:05:07.572Z,99462
2015-10-31T12:05:19.556Z,99462
2015-10-31T12:05:31.509Z,99462
2015-10-31T12:05:43.447Z,99459
2015-10-31T12:05:55.996Z,99456
2015-10-31T12:06:08.028Z,99450
2015-10-31T12:06:20.325Z,99453
2015-10-31T12:06:32.403Z,99453
2015-10-31T12:06:44.450Z,99459
2015-10-31T12:06:56.999Z,99450
2015-10-31T12:07:08.968Z,99459
2015-10-31T12:07:20.890Z,99453
2015-10-31T12:07:33.593Z,99456
2015-10-31T12:07:49.142Z,99468
2015-10-31T12:08:01.658Z,99453
2015-10-31T12:08:18.314Z,99456
2015-10-31T12:08:30.736Z,99456
2015-10-31T12:08:43.048Z,99453
2015-10-31T12:08:55.879Z,99453
2015-10-31T12:09:08.473Z,99453
2015-10-31T12:09:21.004Z,99453
2015-10-31T12:09:33.036Z,99450
2015-10-31T12:09:45.881Z,99462
2015-10-31T12:09:57.897Z,99456
2015-10-31T12:10:10.069Z,99445
2015-10-31T12:10:22.194Z,99450
2015-10-31T12:10:34.288Z,99462
2015-10-31T12:10:46.306Z,99448
2015-10-31T12:10:59.056Z,99453
2015-10-31T12:11:11.463Z,99445
2015-10-31T12:11:23.947Z,99450
2015-10-31T12:11:35.994Z,99453
2015-10-31T12:11:48.028Z,99445
2015-10-31T12:12:00.028Z,99456
2015-10-31T12:12:12.450Z,99453
2015-10-31T12:12:24.809Z,99450
2015-10-31T12:12:37.559Z,99442
2015-10-31T12:12:49.750Z,99439
2015-10-31T12:13:02.875Z,99439
2015-10-31T12:13:15.172Z,99442
2015-10-31T12:13:28.250Z,99442
2015-10-31T12:13:41.500Z,99448
2015-10-31T12:13:53.471Z,99439
2015-10-31T12:14:09.596Z,99445
2015-10-31T12:14:21.783Z,99450
2015-10-31T12:14:34.627Z,99450
2015-10-31T12:14:46.692Z,99450
2015-10-31T12:14:58.692Z,99442
2015-10-31T12:15:10.708Z,99445
2015-10-31T12:15:22.692Z,99450
2015-10-31T12:15:34.645Z,99427
2015-10-31T12:15:46.602Z,99445
2015-10-31T12:15:59.898Z,99453
2015-10-31T12:16:11.820Z,99445
2015-10-31T12:16:23.805Z,99442
2015-10-31T12:16:36.633Z,99450
2015-10-31T12:16:48.682Z,99445
2015-10-31T12:17:01.338Z,99453
2015-10-31T12:17:13.463Z,99439
2015-10-31T12:17:25.541Z,99459
2015-10-31T12:17:38.119Z,99456
2015-10-31T12:17:50.638Z,99445
2015-10-31T12:18:03.075Z,99445
2015-10-31T12:18:15.278Z,99439
2015-10-31T12:18:28.450Z,99439
2015-10-31T12:18:40.435Z,99442
2015-10-31T12:18:52.906Z,99442
2015-10-31T12:19:04.953Z,99439
2015-10-31T12:19:17.313Z,99436
2015-10-31T12:19:29.328Z,99445
2015-10-31T12:19:42.063Z,99439
2015-10-31T12:19:54.643Z,99447
2015-10-31T12:20:06.627Z,99442
2015-10-31T12:20:18.627Z,99439
2015-10-31T12:20:31.408Z,99447
2015-10-31T12:20:43.971Z,99442
2015-10-31T12:20:56.411Z,99439
2015-10-31T12:21:08.974Z,99433
2015-10-31T12:21:20.990Z,99445
2015-10-31T12:21:34.443Z,99439
2015-10-31T12:21:46.427Z,99442
2015-10-31T12:21:58.477Z,99425
2015-10-31T12:22:11.243Z,99436
2015-10-31T12:22:23.196Z,99430
2015-10-31T12:22:35.618Z,99445
2015-10-31T12:22:48.026Z,99430
2015-10-31T12:22:59.979Z,99436
2015-10-31T12:23:11.963Z,99436
2015-10-31T12:23:24.541Z,99433
2015-10-31T12:23:37.010Z,99445
2015-10-31T12:23:49.310Z,99433
2015-10-31T12:24:01.279Z,99433
2015-10-31T12:24:13.216Z,99439
2015-10-31T12:24:25.169Z,99439
2015-10-31T12:24:37.716Z,99439
2015-10-31T12:24:49.501Z,99439
2015-10-31T12:25:01.438Z,99433
2015-10-31T12:25:13.313Z,99450
2015-10-31T12:25:25.735Z,99439
2015-10-31T12:25:37.907Z,99439
2015-10-31T12:25:49.785Z,99445
2015-10-31T12:26:02.738Z,99427
2015-10-31T12:26:15.191Z,99430
2015-10-31T12:26:29.597Z,99442
2015-10-31T12:26:42.316Z,99436
2015-10-31T12:26:55.787Z,99430
2015-10-31T12:27:08.802Z,99439
2015-10-31T12:27:21.084Z,99433
2015-10-31T12:27:35.209Z,99427
2015-10-31T12:27:47.162Z,99433
2015-10-31T12:27:59.680Z,99442
2015-10-31T12:28:12.305Z,99430
2015-10-31T12:28:24.337Z,99433
2015-10-31T12:28:36.415Z,99439
2015-10-31T12:28:48.993Z,99430
2015-10-31T12:29:01.512Z,99433
2015-10-31T12:29:13.590Z,99433
2015-10-31T12:29:25.668Z,99424
2015-10-31T12:29:42.293Z,99424
2015-10-31T12:29:58.904Z,99433
2015-10-31T12:30:14.310Z,99427
2015-10-31T12:30:26.717Z,99427
2015-10-31T12:30:39.154Z,99433
2015-10-31T12:30:56.188Z,99422
2015-10-31T12:31:08.282Z,99430
2015-10-31T12:31:20.829Z,99419
2015-10-31T12:31:33.470Z,99424
2015-10-31T12:31:46.267Z,99419
2015-10-31T12:31:58.098Z,99427
2015-10-31T12:32:09.941Z,99424
2015-10-31T12:32:22.379Z,99416
2015-10-31T12:32:40.676Z,99419
2015-10-31T12:32:53.022Z,99419
2015-10-31T12:33:04.865Z,99427
2015-10-31T12:33:16.740Z,99422
2015-10-31T12:33:29.147Z,99430
2015-10-31T12:33:41.568Z,99436
2015-10-31T12:33:56.353Z,99424
2015-10-31T12:34:09.993Z,99424
2015-10-31T12:34:21.915Z,99427
2015-10-31T12:34:34.259Z,99422
2015-10-31T12:34:46.759Z,99419
2015-10-31T12:34:58.715Z,99410
2015-10-31T12:35:11.871Z,99419
2015-10-31T12:35:26.793Z,99416
2015-10-31T12:35:40.309Z,99419
2015-10-31T19:00:45.327Z,99576
2015-10-31T19:01:00.202Z,99584
2015-10-31T19:01:16.374Z,99593
2015-10-31T19:01:29.502Z,99579
2015-10-31T19:01:43.174Z,99594
2015-10-31T19:01:57.893Z,99583
2015-10-31T19:02:11.846Z,99591
2015-10-31T19:02:25.958Z,99586
2015-10-31T19:02:39.599Z,99586
2015-10-31T19:02:56.552Z,99583
2015-10-31T19:03:09.505Z,99581
2015-10-31T19:03:23.180Z,99598
2015-10-31T19:03:36.008Z,99589
2015-10-31T19:03:50.227Z,99586
2015-10-31T19:04:03.086Z,99589
2015-10-31T19:04:16.696Z,99587
2015-10-31T19:04:30.635Z,99592
2015-10-31T19:04:45.760Z,99587
2015-10-31T19:05:00.104Z,99590
2015-10-31T19:05:17.370Z,99593
2015-10-31T19:11:14.136Z,99590
2015-10-31T19:11:30.467Z,99590
2015-10-31T19:11:42.607Z,99596
2015-10-31T19:11:55.295Z,99587
2015-10-31T19:12:08.029Z,99593
2015-10-31T19:30:38.094Z,99606
2015-10-31T19:30:50.644Z,99604
2015-10-31T19:31:02.894Z,99595
2015-10-31T19:31:15.581Z,99598
2015-10-31T19:31:28.347Z,99598
2015-10-31T19:31:43.050Z,99598
2015-10-31T19:31:55.927Z,99596
2015-10-31T19:32:08.802Z,99610
2015-10-31T19:32:22.474Z,99598
2015-10-31T19:32:34.724Z,99604
2015-10-31T19:32:47.414Z,99596
2015-10-31T19:32:59.727Z,99604
2015-10-31T19:33:13.680Z,99593
2015-10-31T19:33:27.008Z,99598
2015-10-31T19:33:39.477Z,99598
2015-10-31T19:33:51.995Z,99601
2015-10-31T19:34:04.933Z,99607
2015-10-31T19:34:17.152Z,99598
2015-10-31T19:34:33.886Z,99610
2015-10-31T19:34:46.497Z,99612
2015-10-31T19:34:59.294Z,99601
2015-10-31T19:35:16.732Z,99607
2015-10-31T19:35:29.513Z,99596
2015-10-31T19:35:42.013Z,99607
2015-10-31T19:35:54.672Z,99596
2015-10-31T19:36:07.516Z,99607
2015-10-31T19:36:24.110Z,99604
2015-10-31T19:36:37.032Z,99604
2015-10-31T19:36:49.488Z,99607
2015-10-31T19:37:08.988Z,99607
2015-10-31T19:37:24.675Z,99612
2015-10-31T19:37:38.285Z,99601
2015-10-31T19:37:50.974Z,99615
2015-10-31T19:38:05.787Z,99612
2015-10-31T20:12:31.645Z,99627
2015-10-31T20:12:44.036Z,99641
2015-10-31T20:12:56.192Z,99624
2015-10-31T20:13:08.523Z,99632
2015-10-31T20:13:20.555Z,99635
2015-10-31T20:13:32.570Z,99635
2015-10-31T20:13:44.523Z,99641
2015-10-31T20:13:56.555Z,99651
2015-10-31T20:14:08.994Z,99635
2015-10-31T20:14:20.978Z,99635
2015-10-31T20:14:33.697Z,99635
2015-10-31T20:14:46.775Z,99638
2015-10-31T20:14:59.197Z,99635
2015-10-31T20:15:12.045Z,99635
2015-10-31T20:15:24.795Z,99635
2015-10-31T20:15:37.811Z,99635
2015-10-31T20:15:50.748Z,99627
2015-10-31T20:16:07.982Z,99632
2015-10-31T20:16:24.281Z,99629
2015-10-31T20:16:36.781Z,99635
2015-10-31T20:16:50.641Z,99646
2015-10-31T20:17:03.031Z,99635
2015-10-31T20:17:16.002Z,99635
2015-10-31T20:17:28.440Z,99629
2015-10-31T20:17:41.033Z,99635
2015-10-31T20:17:53.690Z,99638
2015-10-31T20:18:06.315Z,99629
2015-10-31T20:18:18.552Z,99638
2015-10-31T20:18:30.880Z,99632
2015-10-31T20:18:43.036Z,99635
2015-10-31T20:18:55.646Z,99643
2015-10-31T20:19:08.864Z,99643
2015-10-31T20:19:21.914Z,99635
2015-10-31T20:19:34.211Z,99638
2015-10-31T20:19:46.508Z,99643
2015-10-31T20:19:58.977Z,99641
2015-10-31T20:20:14.699Z,99648
2015-10-31T20:20:27.667Z,99641
2015-10-31T20:20:39.870Z,99632
2015-10-31T20:20:52.199Z,99641
2015-10-31T20:21:04.464Z,99632
2015-10-31T20:21:17.622Z,99643
2015-10-31T20:21:33.294Z,99641
2015-10-31T20:21:46.529Z,99638
2015-10-31T20:21:59.451Z,99646
2015-10-31T20:22:12.375Z,99646
2015-10-31T20:22:25.672Z,99641
2015-10-31T20:22:38.000Z,99646
2015-10-31T20:22:51.094Z,99635
2015-10-31T20:23:03.485Z,99641
2015-10-31T20:23:18.175Z,99635
2015-10-31T20:23:30.441Z,99635
2015-10-31T20:23:42.535Z,99641
2015-10-31T20:23:54.628Z,99644
2015-10-31T20:24:07.003Z,99644
2015-10-31T20:24:20.163Z,99646
2015-10-31T20:24:32.631Z,99641
2015-10-31T20:24:44.803Z,99635
2015-10-31T20:24:57.428Z,99643
2015-10-31T20:25:09.460Z,99641
2015-10-31T20:25:21.572Z,99635
2015-10-31T20:25:33.697Z,99641
2015-10-31T20:25:45.713Z,99644
2015-10-31T20:26:00.838Z,99646
2015-10-31T20:26:13.027Z,99632
2015-10-31T20:26:25.433Z,99632
2015-10-31T20:26:37.902Z,99648
2015-10-31T20:26:50.746Z,99654
2015-10-31T20:27:02.855Z,99635
2015-10-31T20:27:15.607Z,99646
2015-10-31T20:27:27.810Z,99643
2015-10-31T20:27:39.935Z,99646
2015-10-31T20:27:52.123Z,99643
2015-10-31T20:28:04.779Z,99643
2015-10-31T20:28:17.298Z,99638
2015-10-31T20:28:33.501Z,99635
2015-10-31T20:28:51.938Z,99648
2015-10-31T20:29:10.235Z,99641
2015-10-31T20:29:25.605Z,99646
2015-10-31T20:29:39.277Z,99638
2015-10-31T20:29:51.433Z,99644
2015-10-31T20:30:04.996Z,99643
2015-10-31T20:30:17.256Z,99643
2015-10-31T20:30:34.803Z,99643
2015-10-31T20:30:49.866Z,99648
2015-10-31T20:31:05.397Z,99644
2015-10-31T20:31:25.469Z,99638
2015-10-31T20:31:42.860Z,99641
2015-10-31T20:32:02.172Z,99641
2015-10-31T20:32:14.199Z,99641
2015-10-31T20:32:30.230Z,99643
2015-10-31T20:32:42.214Z,99644
2015-10-31T20:32:54.355Z,99641
2015-10-31T20:33:09.730Z,99646
2015-10-31T20:33:22.083Z,99648
2015-10-31T20:33:34.193Z,99648
2015-10-31T20:34:04.068Z,99638
2015-10-31T20:34:25.052Z,99638
2015-10-31T20:34:38.052Z,99651
2015-10-31T20:34:56.677Z,99648
2015-10-31T20:35:14.818Z,99648
2015-10-31T20:35:27.802Z,99641
2015-10-31T20:35:45.021Z,99648
2015-10-31T20:35:58.052Z,99646
2015-10-31T20:36:11.583Z,99644
